createdAt,value
2023-03-11T00:00:17.136Z,-0.25
2023-03-11T00:02:47.425Z,-0.25
2023-03-11T00:05:27.900Z,-0.31
2023-03-11T00:07:55.946Z,-0.31
2023-03-11T00:10:29.715Z,-0.25
2023-03-11T00:12:56.830Z,-0.19
2023-03-11T00:15:23.417Z,-0.19
2023-03-11T00:17:50.749Z,-0.13
2023-03-11T00:20:22.314Z,-0.19
2023-03-11T00:22:49.068Z,-0.13
2023-03-11T00:25:15.713Z,-0.06
2023-03-11T00:27:42.395Z,-0.06
2023-03-11T00:30:10.203Z,-0.06
2023-03-11T00:32:36.899Z,-0.06
2023-03-11T00:35:05.068Z,-0.06
2023-03-11T00:37:31.674Z,-0.06
2023-03-11T00:39:59.391Z,-0.06
2023-03-11T00:42:25.992Z,-0.06
2023-03-11T00:44:52.549Z,-0.06
2023-03-11T00:47:19.080Z,-0.06
2023-03-11T00:49:46.212Z,0.00
2023-03-11T00:52:12.760Z,0.00
2023-03-11T00:54:39.314Z,0.06
2023-03-11T00:57:05.880Z,0.00
2023-03-11T00:59:34.796Z,0.00
2023-03-11T01:02:01.382Z,0.00
2023-03-11T01:04:27.949Z,0.06
2023-03-11T01:06:54.563Z,0.06
2023-03-11T01:09:21.136Z,0.06
2023-03-11T01:11:47.854Z,0.06
2023-03-11T01:14:14.786Z,0.06
2023-03-11T01:16:41.428Z,0.13
2023-03-11T01:19:08.023Z,0.13
2023-03-11T01:21:34.601Z,0.13
2023-03-11T01:24:01.150Z,0.06
2023-03-11T01:26:27.920Z,0.06
2023-03-11T01:28:54.497Z,0.06
2023-03-11T01:31:21.106Z,0.13
2023-03-11T01:33:47.807Z,0.13
2023-03-11T01:36:14.418Z,0.13
2023-03-11T01:38:40.990Z,0.19
2023-03-11T01:41:11.152Z,0.19
2023-03-11T01:43:40.770Z,0.19
2023-03-11T01:46:19.381Z,0.19
2023-03-11T01:48:49.549Z,0.25
2023-03-11T01:51:24.126Z,0.25
2023-03-11T01:53:52.045Z,0.25
2023-03-11T01:56:19.691Z,0.19
2023-03-11T01:58:52.239Z,0.19
2023-03-11T02:01:21.346Z,0.19
2023-03-11T02:03:48.173Z,0.25
2023-03-11T02:06:21.314Z,0.25
2023-03-11T02:08:48.948Z,0.25
2023-03-11T02:11:26.407Z,0.19
2023-03-11T02:13:58.144Z,0.25
2023-03-11T02:16:25.152Z,0.19
2023-03-11T02:18:52.121Z,0.19
2023-03-11T02:21:33.864Z,0.19
2023-03-11T02:24:25.978Z,0.25
2023-03-11T02:26:59.020Z,0.19
2023-03-11T02:29:27.798Z,0.19
2023-03-11T02:31:56.347Z,0.19
2023-03-11T02:34:27.757Z,0.19
2023-03-11T02:36:54.531Z,0.19
2023-03-11T02:39:37.111Z,0.19
2023-03-11T02:42:22.003Z,0.19
2023-03-11T02:45:00.136Z,0.19
2023-03-11T02:47:26.944Z,0.13
2023-03-11T02:49:57.058Z,0.06
2023-03-11T02:52:28.826Z,0.06
2023-03-11T02:54:55.571Z,0.00
2023-03-11T02:57:22.278Z,0.00
2023-03-11T02:59:48.814Z,-0.06
2023-03-11T03:02:15.450Z,-0.13
2023-03-11T03:04:42.145Z,-0.19
2023-03-11T03:07:09.457Z,-0.31
2023-03-11T03:09:36.910Z,-0.38
2023-03-11T03:12:04.565Z,-0.44
2023-03-11T03:14:32.077Z,-0.50
2023-03-11T03:16:59.441Z,-0.56
2023-03-11T03:19:26.277Z,-0.63
2023-03-11T03:21:52.815Z,-0.69
2023-03-11T03:24:19.409Z,-0.69
2023-03-11T03:26:46.074Z,-0.75
2023-03-11T03:29:12.708Z,-0.75
2023-03-11T03:31:39.365Z,-0.75
2023-03-11T03:34:05.984Z,-0.75
2023-03-11T03:36:32.548Z,-0.81
2023-03-11T03:38:59.742Z,-0.81
2023-03-11T03:41:26.290Z,-0.94
2023-03-11T03:43:54.618Z,-0.88
2023-03-11T03:46:22.153Z,-0.94
2023-03-11T03:48:49.065Z,-0.94
2023-03-11T03:51:16.661Z,-0.94
2023-03-11T03:53:44.072Z,-0.94
2023-03-11T03:56:13.919Z,-0.94
2023-03-11T03:58:40.499Z,-0.94
2023-03-11T04:01:08.324Z,-0.94
2023-03-11T04:03:35.749Z,-0.94
2023-03-11T04:06:25.433Z,-0.94
2023-03-11T04:08:54.190Z,-0.94
2023-03-11T04:11:22.195Z,-0.88
2023-03-11T04:13:49.232Z,-0.88
2023-03-11T04:16:22.099Z,-0.88
2023-03-11T04:18:49.354Z,-0.94
2023-03-11T04:21:16.193Z,-1.00
2023-03-11T04:23:42.768Z,-1.00
2023-03-11T04:26:09.539Z,-1.13
2023-03-11T04:28:36.115Z,-1.13
2023-03-11T04:31:02.753Z,-1.25
2023-03-11T04:33:29.418Z,-1.19
2023-03-11T04:35:56.524Z,-1.25
2023-03-11T04:38:23.165Z,-1.31
2023-03-11T04:40:49.961Z,-1.38
2023-03-11T04:43:16.960Z,-1.44
2023-03-11T04:45:43.521Z,-1.44
2023-03-11T04:48:10.139Z,-1.44
2023-03-11T04:50:37.030Z,-1.56
2023-03-11T04:53:03.661Z,-1.56
2023-03-11T04:55:30.223Z,-1.56
2023-03-11T04:57:56.777Z,-1.63
2023-03-11T05:00:25.135Z,-1.69
2023-03-11T05:02:51.993Z,-1.69
2023-03-11T05:05:19.983Z,-1.75
2023-03-11T05:07:46.644Z,-1.88
2023-03-11T05:10:13.593Z,-1.88
2023-03-11T05:12:40.240Z,-1.88
2023-03-11T05:15:07.713Z,-1.94
2023-03-11T05:17:34.324Z,-1.94
2023-03-11T05:20:00.899Z,-2.00
2023-03-11T05:22:27.466Z,-2.00
2023-03-11T05:24:54.115Z,-2.00
2023-03-11T05:27:21.300Z,-2.13
2023-03-11T05:29:48.143Z,-2.13
2023-03-11T05:32:15.021Z,-2.25
2023-03-11T05:34:41.794Z,-2.19
2023-03-11T05:37:08.406Z,-2.19
2023-03-11T05:39:35.165Z,-2.31
2023-03-11T05:42:01.755Z,-2.25
2023-03-11T05:44:28.306Z,-2.25
2023-03-11T05:46:54.984Z,-2.31
2023-03-11T05:49:21.655Z,-2.38
2023-03-11T05:51:49.102Z,-2.31
2023-03-11T05:54:15.973Z,-2.38
2023-03-11T05:56:44.785Z,-2.31
2023-03-11T05:59:16.257Z,-2.38
2023-03-11T06:01:44.279Z,-2.50
2023-03-11T06:04:11.655Z,-2.50
2023-03-11T06:06:41.083Z,-2.44
2023-03-11T06:09:12.060Z,-2.44
2023-03-11T06:11:38.683Z,-2.38
2023-03-11T06:14:05.541Z,-2.38
2023-03-11T06:16:32.661Z,-2.38
2023-03-11T06:19:00.864Z,-2.38
2023-03-11T06:21:27.592Z,-2.38
2023-03-11T06:23:55.182Z,-2.38
2023-03-11T06:26:22.941Z,-2.38
2023-03-11T06:28:51.740Z,-2.38
2023-03-11T06:31:25.515Z,-2.31
2023-03-11T06:33:53.373Z,-2.38
2023-03-11T06:36:20.791Z,-2.31
2023-03-11T06:38:49.351Z,-2.31
2023-03-11T06:41:16.232Z,-2.31
2023-03-11T06:43:43.555Z,-2.19
2023-03-11T06:46:18.868Z,-2.13
2023-03-11T06:48:46.461Z,-2.06
2023-03-11T06:51:13.829Z,-2.06
2023-03-11T06:53:40.493Z,-2.00
2023-03-11T06:56:12.358Z,-2.00
2023-03-11T06:58:41.169Z,-1.88
2023-03-11T07:01:34.364Z,-1.88
2023-03-11T07:04:01.035Z,-1.88
2023-03-11T07:06:28.357Z,-1.88
2023-03-11T07:08:55.025Z,-1.88
2023-03-11T07:11:27.294Z,-1.81
2023-03-11T07:13:54.798Z,-1.81
2023-03-11T07:16:25.204Z,-1.75
2023-03-11T07:18:54.753Z,-1.63
2023-03-11T07:21:23.072Z,-1.44
2023-03-11T07:23:55.385Z,-1.31
2023-03-11T07:26:22.751Z,-1.19
2023-03-11T07:28:49.568Z,-1.13
2023-03-11T07:31:23.373Z,-1.06
2023-03-11T07:33:50.970Z,-0.94
2023-03-11T07:36:20.972Z,-0.88
2023-03-11T07:38:47.742Z,-0.81
2023-03-11T07:41:15.317Z,-0.75
2023-03-11T07:43:43.276Z,-0.63
2023-03-11T07:46:18.653Z,-0.56
2023-03-11T07:48:45.971Z,-0.44
2023-03-11T07:51:22.066Z,-0.38
2023-03-11T07:53:49.843Z,-0.25
2023-03-11T07:56:17.409Z,-0.13
2023-03-11T07:58:45.887Z,-0.06
2023-03-11T08:01:16.386Z,0.06
2023-03-11T08:03:45.664Z,0.19
2023-03-11T08:06:21.266Z,0.31
2023-03-11T08:08:49.528Z,0.31
2023-03-11T08:11:16.860Z,0.44
2023-03-11T08:13:45.383Z,0.50
2023-03-11T08:16:14.672Z,0.56
2023-03-11T08:18:42.057Z,0.69
2023-03-11T08:21:15.484Z,0.81
2023-03-11T08:23:43.116Z,0.94
2023-03-11T08:26:12.839Z,1.00
2023-03-11T08:28:39.956Z,1.13
2023-03-11T08:31:15.051Z,1.19
2023-03-11T08:33:43.947Z,1.25
2023-03-11T08:36:11.057Z,1.38
2023-03-11T08:38:38.099Z,1.56
2023-03-11T08:41:05.481Z,1.63
2023-03-11T08:43:32.054Z,1.75
2023-03-11T08:46:01.086Z,1.88
2023-03-11T08:48:28.461Z,2.00
2023-03-11T08:50:55.215Z,2.13
2023-03-11T08:53:23.180Z,2.19
2023-03-11T08:55:50.549Z,2.31
2023-03-11T08:58:17.440Z,2.38
2023-03-11T09:00:44.413Z,2.50
2023-03-11T09:03:11.114Z,2.69
2023-03-11T09:05:37.778Z,2.81
2023-03-11T09:08:05.700Z,2.94
2023-03-11T09:10:32.595Z,3.13
2023-03-11T09:12:59.252Z,3.25
2023-03-11T09:15:25.915Z,3.38
2023-03-11T09:17:54.257Z,3.44
2023-03-11T09:20:20.896Z,3.44
2023-03-11T09:22:48.458Z,3.38
2023-03-11T09:25:15.406Z,3.38
2023-03-11T09:27:42.162Z,3.38
2023-03-11T09:30:10.502Z,3.44
2023-03-11T09:32:37.407Z,3.56
2023-03-11T09:35:04.706Z,3.63
2023-03-11T09:37:31.494Z,3.69
2023-03-11T09:39:58.213Z,3.69
2023-03-11T09:42:36.925Z,3.63
2023-03-11T09:45:24.144Z,3.56
2023-03-11T09:48:08.305Z,3.44
2023-03-11T09:50:46.417Z,3.69
2023-03-11T09:53:31.548Z,3.88
2023-03-11T09:56:00.497Z,3.94
2023-03-11T09:58:48.709Z,4.00
2023-03-11T10:01:51.893Z,4.06
2023-03-11T10:04:42.062Z,4.19
2023-03-11T10:07:22.122Z,4.44
2023-03-11T10:09:54.128Z,4.75
2023-03-11T10:12:56.036Z,4.94
2023-03-11T10:15:28.693Z,5.06
2023-03-11T10:18:13.868Z,5.06
2023-03-11T10:20:51.097Z,5.00
2023-03-11T10:23:45.553Z,5.06
2023-03-11T10:26:18.177Z,4.94
2023-03-11T10:29:25.860Z,4.94
2023-03-11T10:32:14.744Z,5.00
2023-03-11T10:34:54.727Z,5.38
2023-03-11T10:37:33.196Z,5.44
2023-03-11T10:40:38.570Z,5.44
2023-03-11T10:43:39.539Z,5.50
2023-03-11T10:46:18.389Z,5.44
2023-03-11T10:48:45.078Z,5.44
2023-03-11T10:51:26.909Z,5.31
2023-03-11T10:53:56.662Z,5.38
2023-03-11T10:56:53.716Z,5.50
2023-03-11T10:59:33.851Z,5.69
2023-03-11T11:02:21.267Z,5.81
2023-03-11T11:04:50.365Z,5.94
2023-03-11T11:07:39.539Z,5.81
2023-03-11T11:10:12.185Z,6.00
2023-03-11T11:13:00.112Z,5.94
2023-03-11T11:15:34.136Z,5.94
2023-03-11T11:18:15.206Z,5.81
2023-03-11T11:20:53.967Z,5.63
2023-03-11T11:23:33.077Z,5.75
2023-03-11T11:26:04.683Z,5.88
2023-03-11T11:28:33.719Z,6.13
2023-03-11T11:31:05.423Z,6.06
2023-03-11T11:33:32.084Z,6.00
2023-03-11T11:36:05.582Z,6.13
2023-03-11T11:38:33.870Z,6.13
2023-03-11T11:41:03.745Z,6.38
2023-03-11T11:43:53.125Z,6.44
2023-03-11T11:46:31.169Z,6.31
2023-03-11T11:49:27.294Z,6.19
2023-03-11T11:52:04.084Z,5.81
2023-03-11T11:54:42.527Z,5.56
2023-03-11T11:57:15.351Z,5.75
2023-03-11T11:59:43.293Z,5.88
2023-03-11T12:02:16.336Z,5.94
2023-03-11T12:05:01.238Z,5.88
2023-03-11T12:07:42.259Z,5.81
2023-03-11T12:10:33.105Z,5.81
2023-03-11T12:13:30.912Z,6.13
2023-03-11T12:16:12.647Z,5.81
2023-03-11T12:18:47.696Z,5.81
2023-03-11T12:21:34.682Z,5.88
2023-03-11T12:24:38.815Z,6.13
2023-03-11T12:27:25.296Z,6.13
2023-03-11T12:29:58.843Z,6.13
2023-03-11T12:32:31.652Z,6.38
2023-03-11T12:35:23.039Z,6.31
2023-03-11T12:38:16.646Z,6.44
2023-03-11T12:40:59.772Z,6.38
2023-03-11T12:43:35.231Z,6.38
2023-03-11T12:46:08.758Z,6.63
2023-03-11T12:49:12.609Z,6.69
2023-03-11T12:51:40.251Z,6.75
2023-03-11T12:54:34.205Z,6.75
2023-03-11T12:57:27.039Z,6.44
2023-03-11T13:00:24.492Z,6.63
2023-03-11T13:03:10.027Z,6.75
2023-03-11T13:06:15.304Z,6.88
2023-03-11T13:08:55.364Z,6.69
2023-03-11T13:11:34.156Z,6.81
2023-03-11T13:14:25.664Z,6.75
2023-03-11T13:16:53.768Z,6.88
2023-03-11T13:19:26.218Z,6.88
2023-03-11T13:21:54.463Z,6.88
2023-03-11T13:24:27.000Z,7.06
2023-03-11T13:26:56.605Z,7.00
2023-03-11T13:30:04.406Z,7.06
2023-03-11T13:33:11.893Z,7.13
2023-03-11T13:35:49.404Z,7.06
2023-03-11T13:38:40.938Z,7.00
2023-03-11T13:41:33.106Z,7.00
2023-03-11T13:44:13.750Z,7.13
2023-03-11T13:46:44.733Z,7.19
2023-03-11T13:49:50.788Z,7.31
2023-03-11T13:52:31.406Z,7.56
2023-03-11T13:55:14.697Z,7.56
2023-03-11T13:57:50.872Z,7.50
2023-03-11T14:00:24.374Z,7.50
2023-03-11T14:02:55.400Z,7.19
2023-03-11T14:05:34.822Z,7.25
2023-03-11T14:08:28.124Z,7.31
2023-03-11T14:10:59.172Z,7.31
2023-03-11T14:13:29.581Z,7.19
2023-03-11T14:16:15.038Z,7.38
2023-03-11T14:19:00.987Z,7.44
2023-03-11T14:21:28.181Z,7.38
2023-03-11T14:23:56.093Z,7.50
2023-03-11T14:26:32.938Z,7.56
2023-03-11T14:29:02.810Z,7.63
2023-03-11T14:31:35.910Z,7.75
2023-03-11T14:34:12.527Z,7.63
2023-03-11T14:36:48.396Z,7.50
2023-03-11T14:39:26.739Z,7.31
2023-03-11T14:42:07.905Z,7.44
2023-03-11T14:44:40.545Z,7.50
2023-03-11T14:47:19.054Z,7.50
2023-03-11T14:49:49.438Z,7.69
2023-03-11T14:52:31.081Z,7.63
2023-03-11T14:55:00.030Z,7.38
2023-03-11T14:57:41.074Z,7.38
2023-03-11T15:00:17.445Z,7.56
2023-03-11T15:03:01.427Z,7.63
2023-03-11T15:05:37.955Z,7.63
2023-03-11T15:08:07.430Z,7.63
2023-03-11T15:10:34.573Z,7.56
2023-03-11T15:13:14.867Z,7.63
2023-03-11T15:15:42.002Z,7.63
2023-03-11T15:18:25.001Z,7.56
2023-03-11T15:21:24.527Z,7.63
2023-03-11T15:24:00.688Z,7.63
2023-03-11T15:26:34.495Z,7.69
2023-03-11T15:29:06.847Z,7.88
2023-03-11T15:31:37.509Z,8.00
2023-03-11T15:34:10.012Z,7.81
2023-03-11T15:36:39.622Z,7.63
2023-03-11T15:39:13.290Z,7.56
2023-03-11T15:41:43.853Z,7.19
2023-03-11T15:44:42.354Z,7.00
2023-03-11T15:47:15.153Z,7.06
2023-03-11T15:49:42.431Z,7.19
2023-03-11T15:52:09.548Z,7.06
2023-03-11T15:54:37.149Z,6.94
2023-03-11T15:57:07.832Z,7.06
2023-03-11T15:59:36.734Z,7.13
2023-03-11T16:02:04.354Z,7.13
2023-03-11T16:04:31.134Z,6.94
2023-03-11T16:07:07.564Z,6.88
2023-03-11T16:09:35.254Z,6.75
2023-03-11T16:12:02.700Z,6.69
2023-03-11T16:14:29.313Z,6.81
2023-03-11T16:16:55.909Z,6.94
2023-03-11T16:19:22.448Z,7.00
2023-03-11T16:21:50.544Z,6.94
2023-03-11T16:24:22.589Z,6.94
2023-03-11T16:26:52.078Z,6.81
2023-03-11T16:29:19.952Z,6.81
2023-03-11T16:31:47.120Z,6.81
2023-03-11T16:34:13.675Z,6.75
2023-03-11T16:36:40.360Z,6.69
2023-03-11T16:39:07.006Z,6.69
2023-03-11T16:41:44.953Z,6.56
2023-03-11T16:44:12.669Z,6.56
2023-03-11T16:46:39.435Z,6.50
2023-03-11T16:49:06.370Z,6.38
2023-03-11T16:51:33.503Z,6.38
2023-03-11T16:54:00.738Z,6.31
2023-03-11T16:56:27.777Z,6.25
2023-03-11T16:58:54.573Z,6.06
2023-03-11T17:01:21.779Z,5.94
2023-03-11T17:03:50.786Z,5.81
2023-03-11T17:06:18.317Z,5.69
2023-03-11T17:08:48.939Z,5.50
2023-03-11T17:11:18.032Z,5.44
2023-03-11T17:13:44.741Z,5.25
2023-03-11T17:16:11.792Z,5.13
2023-03-11T17:18:38.586Z,5.00
2023-03-11T17:21:07.118Z,4.88
2023-03-11T17:23:33.711Z,4.81
2023-03-11T17:26:01.744Z,4.75
2023-03-11T17:28:28.455Z,4.63
2023-03-11T17:30:55.067Z,4.38
2023-03-11T17:33:21.676Z,4.19
2023-03-11T17:35:48.316Z,4.00
2023-03-11T17:38:16.586Z,3.88
2023-03-11T17:40:43.313Z,3.75
2023-03-11T17:43:09.987Z,3.63
2023-03-11T17:45:38.812Z,3.50
2023-03-11T17:48:05.543Z,3.38
2023-03-11T17:50:32.101Z,3.25
2023-03-11T17:52:58.755Z,3.13
2023-03-11T17:55:26.262Z,3.06
2023-03-11T17:57:52.854Z,2.94
2023-03-11T18:00:19.918Z,2.75
2023-03-11T18:02:46.548Z,2.56
2023-03-11T18:05:13.152Z,2.38
2023-03-11T18:07:40.332Z,2.31
2023-03-11T18:10:08.781Z,2.19
2023-03-11T18:12:35.866Z,2.13
2023-03-11T18:15:14.205Z,2.06
2023-03-11T18:17:40.924Z,1.94
2023-03-11T18:20:07.994Z,1.88
2023-03-11T18:22:35.450Z,1.81
2023-03-11T18:25:02.189Z,1.75
2023-03-11T18:27:28.744Z,1.69
2023-03-11T18:29:55.445Z,1.63
2023-03-11T18:32:24.637Z,1.56
2023-03-11T18:34:51.443Z,1.63
2023-03-11T18:37:18.201Z,1.56
2023-03-11T18:39:44.812Z,1.56
2023-03-11T18:42:11.624Z,1.56
2023-03-11T18:44:38.340Z,1.56
2023-03-11T18:47:04.945Z,1.56
2023-03-11T18:49:31.546Z,1.56
2023-03-11T18:51:58.314Z,1.50
2023-03-11T18:54:24.995Z,1.44
2023-03-11T18:56:51.637Z,1.38
2023-03-11T18:59:18.220Z,1.31
2023-03-11T19:01:44.747Z,1.19
2023-03-11T19:04:11.507Z,1.25
2023-03-11T19:06:38.128Z,1.25
2023-03-11T19:09:06.621Z,1.19
2023-03-11T19:11:33.453Z,1.13
2023-03-11T19:14:00.046Z,1.19
2023-03-11T19:16:26.812Z,1.19
2023-03-11T19:18:55.216Z,1.13
2023-03-11T19:21:22.764Z,1.06
2023-03-11T19:23:52.112Z,1.06
2023-03-11T19:26:18.928Z,1.06
2023-03-11T19:28:45.570Z,1.06
2023-03-11T19:31:13.045Z,1.00
2023-03-11T19:33:39.777Z,0.94
2023-03-11T19:36:07.619Z,0.81
2023-03-11T19:38:34.937Z,0.63
2023-03-11T19:41:14.512Z,0.56
2023-03-11T19:43:42.128Z,0.50
2023-03-11T19:46:12.206Z,0.50
2023-03-11T19:48:38.955Z,0.44
2023-03-11T19:51:05.936Z,0.38
2023-03-11T19:53:34.628Z,0.25
2023-03-11T19:56:01.599Z,0.25
2023-03-11T19:58:30.555Z,0.19
2023-03-11T20:00:58.288Z,0.13
2023-03-11T20:03:25.901Z,0.13
2023-03-11T20:05:56.547Z,0.06
2023-03-11T20:08:25.262Z,0.06
2023-03-11T20:10:53.735Z,0.13
2023-03-11T20:13:22.250Z,0.13
2023-03-11T20:15:49.795Z,0.06
2023-03-11T20:18:17.783Z,-0.06
2023-03-11T20:20:45.624Z,-0.06
2023-03-11T20:23:13.025Z,-0.19
2023-03-11T20:25:40.879Z,-0.25
2023-03-11T20:28:08.283Z,-0.31
2023-03-11T20:30:37.297Z,-0.44
2023-03-11T20:33:04.009Z,-0.44
2023-03-11T20:35:30.690Z,-0.44
2023-03-11T20:37:59.276Z,-0.44
2023-03-11T20:40:26.292Z,-0.50
2023-03-11T20:42:52.953Z,-0.50
2023-03-11T20:45:22.470Z,-0.50
2023-03-11T20:47:50.726Z,-0.56
2023-03-11T20:50:17.933Z,-0.63
2023-03-11T20:52:44.709Z,-0.63
2023-03-11T20:55:13.411Z,-0.63
2023-03-11T20:57:40.453Z,-0.63
2023-03-11T21:00:11.663Z,-0.63
2023-03-11T21:02:40.522Z,-0.63
2023-03-11T21:05:08.939Z,-0.56
2023-03-11T21:07:35.773Z,-0.50
2023-03-11T21:10:05.318Z,-0.50
2023-03-11T21:12:32.017Z,-0.50
2023-03-11T21:14:58.594Z,-0.44
2023-03-11T21:17:25.222Z,-0.44
2023-03-11T21:19:51.883Z,-0.50
2023-03-11T21:22:18.632Z,-0.44
2023-03-11T21:24:45.370Z,-0.44
2023-03-11T21:27:12.134Z,-0.44
2023-03-11T21:29:38.905Z,-0.44
2023-03-11T21:32:05.903Z,-0.50
2023-03-11T21:34:33.426Z,-0.38
2023-03-11T21:37:00.262Z,-0.38
2023-03-11T21:39:26.963Z,-0.38
2023-03-11T21:41:56.051Z,-0.38
2023-03-11T21:44:22.829Z,-0.31
2023-03-11T21:46:49.775Z,-0.31
2023-03-11T21:49:16.628Z,-0.31
2023-03-11T21:51:43.280Z,-0.31
2023-03-11T21:54:10.989Z,-0.38
2023-03-11T21:56:37.875Z,-0.31
2023-03-11T21:59:04.870Z,-0.38
2023-03-11T22:01:31.835Z,-0.44
2023-03-11T22:03:58.603Z,-0.44
2023-03-11T22:06:25.399Z,-0.50
2023-03-11T22:08:52.486Z,-0.56
2023-03-11T22:11:20.508Z,-0.63
2023-03-11T22:13:49.254Z,-0.69
2023-03-11T22:16:16.188Z,-0.69
2023-03-11T22:18:43.819Z,-0.69
2023-03-11T22:21:11.984Z,-0.69
2023-03-11T22:23:38.682Z,-0.69
2023-03-11T22:26:05.280Z,-0.69
2023-03-11T22:28:32.049Z,-0.69
2023-03-11T22:30:58.727Z,-0.75
2023-03-11T22:33:25.738Z,-0.75
2023-03-11T22:35:57.464Z,-0.75
2023-03-11T22:38:24.226Z,-0.75
2023-03-11T22:40:51.419Z,-0.81
2023-03-11T22:43:18.046Z,-0.81
2023-03-11T22:45:45.539Z,-0.88
2023-03-11T22:48:12.425Z,-0.88
2023-03-11T22:50:44.458Z,-0.88
2023-03-11T22:53:12.529Z,-0.88
2023-03-11T22:55:45.219Z,-0.81
2023-03-11T22:58:12.330Z,-0.81
2023-03-11T23:00:39.105Z,-0.81
2023-03-11T23:03:06.638Z,-0.81
2023-03-11T23:05:40.834Z,-0.75
2023-03-11T23:08:10.071Z,-0.75
2023-03-11T23:10:36.870Z,-0.75
2023-03-11T23:13:03.546Z,-0.69
2023-03-11T23:15:30.218Z,-0.63
2023-03-11T23:17:56.821Z,-0.63
2023-03-11T23:20:23.499Z,-0.50
2023-03-11T23:22:50.105Z,-0.50
2023-03-11T23:25:17.431Z,-0.44
2023-03-11T23:27:45.427Z,-0.44
2023-03-11T23:30:14.988Z,-0.44
2023-03-11T23:32:41.715Z,-0.38
2023-03-11T23:35:09.047Z,-0.38
2023-03-11T23:37:35.711Z,-0.38
2023-03-11T23:40:02.796Z,-0.38
2023-03-11T23:42:32.684Z,-0.31
2023-03-11T23:44:59.233Z,-0.25
2023-03-11T23:47:25.817Z,-0.19
2023-03-11T23:49:52.409Z,-0.19
2023-03-11T23:52:18.968Z,-0.13
2023-03-11T23:54:45.509Z,-0.13
2023-03-11T23:57:12.130Z,-0.06
2023-03-11T23:59:38.671Z,0.00
